sensor_id;sensor_type;location;lat;lon;timestamp;P1;durP1;ratioP1;P2;durP2;ratioP2
61435;SDS011;47304;47.456;19.160;2023-11-18T00:01:32;10.40;;;5.00;;
61435;SDS011;47304;47.456;19.160;2023-11-18T00:04:00;9.90;;;5.00;;
61435;SDS011;47304;47.456;19.160;2023-11-18T00:06:29;9.90;;;5.20;;
61435;SDS011;47304;47.456;19.160;2023-11-18T00:08:57;8.60;;;4.30;;
61435;SDS011;47304;47.456;19.160;2023-11-18T00:11:26;9.90;;;4.60;;
61435;SDS011;47304;47.456;19.160;2023-11-18T00:13:54;8.70;;;4.50;;
61435;SDS011;47304;47.456;19.160;2023-11-18T00:16:23;9.40;;;5.00;;
61435;SDS011;47304;47.456;19.160;2023-11-18T00:18:51;9.50;;;4.30;;
61435;SDS011;47304;47.456;19.160;2023-11-18T00:21:20;9.20;;;4.40;;
61435;SDS011;47304;47.456;19.160;2023-11-18T00:23:48;9.00;;;4.40;;
61435;SDS011;47304;47.456;19.160;2023-11-18T00:26:16;8.20;;;4.20;;
61435;SDS011;47304;47.456;19.160;2023-11-18T00:28:45;11.50;;;4.80;;
61435;SDS011;47304;47.456;19.160;2023-11-18T00:31:13;11.00;;;5.60;;
61435;SDS011;47304;47.456;19.160;2023-11-18T00:33:42;9.50;;;5.00;;
61435;SDS011;47304;47.456;19.160;2023-11-18T00:36:10;10.70;;;5.40;;
61435;SDS011;47304;47.456;19.160;2023-11-18T00:38:39;9.50;;;5.40;;
61435;SDS011;47304;47.456;19.160;2023-11-18T00:41:07;10.50;;;5.00;;
61435;SDS011;47304;47.456;19.160;2023-11-18T00:43:35;9.50;;;5.20;;
61435;SDS011;47304;47.456;19.160;2023-11-18T00:46:04;10.10;;;5.00;;
61435;SDS011;47304;47.456;19.160;2023-11-18T00:48:32;9.60;;;4.70;;
61435;SDS011;47304;47.456;19.160;2023-11-18T00:51:00;9.70;;;4.80;;
61435;SDS011;47304;47.456;19.160;2023-11-18T00:53:30;9.90;;;5.40;;
61435;SDS011;47304;47.456;19.160;2023-11-18T00:55:58;9.00;;;5.10;;
61435;SDS011;47304;47.456;19.160;2023-11-18T00:58:27;9.60;;;5.40;;
61435;SDS011;47304;47.456;19.160;2023-11-18T01:00:55;8.90;;;4.70;;
61435;SDS011;47304;47.456;19.160;2023-11-18T01:03:24;9.30;;;4.80;;
61435;SDS011;47304;47.456;19.160;2023-11-18T01:05:52;9.20;;;5.00;;
61435;SDS011;47304;47.456;19.160;2023-11-18T01:08:21;8.40;;;4.50;;
61435;SDS011;47304;47.456;19.160;2023-11-18T01:10:49;9.00;;;4.60;;
61435;SDS011;47304;47.456;19.160;2023-11-18T01:13:17;9.00;;;4.60;;
61435;SDS011;47304;47.456;19.160;2023-11-18T01:15:46;10.90;;;5.20;;
61435;SDS011;47304;47.456;19.160;2023-11-18T01:18:15;9.50;;;4.70;;
61435;SDS011;47304;47.456;19.160;2023-11-18T01:20:43;9.70;;;4.90;;
61435;SDS011;47304;47.456;19.160;2023-11-18T01:23:12;10.40;;;5.50;;
61435;SDS011;47304;47.456;19.160;2023-11-18T01:25:40;13.10;;;4.90;;
61435;SDS011;47304;47.456;19.160;2023-11-18T01:28:09;11.00;;;5.50;;
61435;SDS011;47304;47.456;19.160;2023-11-18T01:30:37;8.10;;;4.60;;
61435;SDS011;47304;47.456;19.160;2023-11-18T01:33:06;8.40;;;4.50;;
61435;SDS011;47304;47.456;19.160;2023-11-18T01:35:34;9.80;;;4.90;;
61435;SDS011;47304;47.456;19.160;2023-11-18T01:38:03;9.50;;;4.90;;
61435;SDS011;47304;47.456;19.160;2023-11-18T01:40:32;10.70;;;5.20;;
61435;SDS011;47304;47.456;19.160;2023-11-18T01:43:01;10.80;;;5.10;;
61435;SDS011;47304;47.456;19.160;2023-11-18T01:45:29;9.70;;;4.60;;
61435;SDS011;47304;47.456;19.160;2023-11-18T01:47:57;9.20;;;5.00;;
61435;SDS011;47304;47.456;19.160;2023-11-18T01:50:26;9.00;;;4.40;;
61435;SDS011;47304;47.456;19.160;2023-11-18T01:52:55;9.10;;;4.90;;
61435;SDS011;47304;47.456;19.160;2023-11-18T01:55:23;10.20;;;5.30;;
61435;SDS011;47304;47.456;19.160;2023-11-18T01:57:52;9.10;;;5.40;;
61435;SDS011;47304;47.456;19.160;2023-11-18T02:00:20;9.60;;;4.80;;
61435;SDS011;47304;47.456;19.160;2023-11-18T02:02:49;8.60;;;4.70;;
61435;SDS011;47304;47.456;19.160;2023-11-18T02:05:17;9.30;;;5.00;;
61435;SDS011;47304;47.456;19.160;2023-11-18T02:07:46;8.60;;;4.60;;
61435;SDS011;47304;47.456;19.160;2023-11-18T02:10:15;8.90;;;4.70;;
61435;SDS011;47304;47.456;19.160;2023-11-18T02:12:44;9.70;;;4.90;;
61435;SDS011;47304;47.456;19.160;2023-11-18T02:15:17;9.20;;;4.50;;
61435;SDS011;47304;47.456;19.160;2023-11-18T02:17:47;8.80;;;4.30;;
61435;SDS011;47304;47.456;19.160;2023-11-18T02:20:19;8.70;;;4.90;;
61435;SDS011;47304;47.456;19.160;2023-11-18T02:22:48;8.40;;;4.20;;
61435;SDS011;47304;47.456;19.160;2023-11-18T02:25:17;8.70;;;4.50;;
61435;SDS011;47304;47.456;19.160;2023-11-18T02:27:48;9.60;;;4.60;;
61435;SDS011;47304;47.456;19.160;2023-11-18T02:30:16;8.70;;;4.50;;
61435;SDS011;47304;47.456;19.160;2023-11-18T02:32:46;10.40;;;4.60;;
61435;SDS011;47304;47.456;19.160;2023-11-18T02:35:24;7.20;;;3.60;;
61435;SDS011;47304;47.456;19.160;2023-11-18T02:37:56;8.40;;;4.10;;
61435;SDS011;47304;47.456;19.160;2023-11-18T02:40:27;7.80;;;3.50;;
61435;SDS011;47304;47.456;19.160;2023-11-18T02:42:58;8.60;;;4.20;;
61435;SDS011;47304;47.456;19.160;2023-11-18T02:45:27;8.10;;;3.80;;
61435;SDS011;47304;47.456;19.160;2023-11-18T02:47:56;8.90;;;4.50;;
61435;SDS011;47304;47.456;19.160;2023-11-18T02:50:25;8.60;;;4.60;;
61435;SDS011;47304;47.456;19.160;2023-11-18T02:52:54;8.10;;;4.20;;
61435;SDS011;47304;47.456;19.160;2023-11-18T02:55:22;7.70;;;3.90;;
61435;SDS011;47304;47.456;19.160;2023-11-18T02:57:51;8.20;;;3.90;;
61435;SDS011;47304;47.456;19.160;2023-11-18T03:00:19;8.50;;;4.10;;
61435;SDS011;47304;47.456;19.160;2023-11-18T03:02:48;8.50;;;4.20;;
61435;SDS011;47304;47.456;19.160;2023-11-18T03:05:17;8.00;;;3.80;;
61435;SDS011;47304;47.456;19.160;2023-11-18T03:07:46;7.50;;;3.40;;
61435;SDS011;47304;47.456;19.160;2023-11-18T03:10:15;7.70;;;4.20;;
61435;SDS011;47304;47.456;19.160;2023-11-18T03:12:43;8.10;;;3.60;;
61435;SDS011;47304;47.456;19.160;2023-11-18T03:15:12;8.30;;;3.80;;
61435;SDS011;47304;47.456;19.160;2023-11-18T03:17:40;7.90;;;3.90;;
61435;SDS011;47304;47.456;19.160;2023-11-18T03:20:10;8.40;;;4.50;;
61435;SDS011;47304;47.456;19.160;2023-11-18T03:22:39;8.60;;;3.50;;
61435;SDS011;47304;47.456;19.160;2023-11-18T03:25:07;8.00;;;4.20;;
61435;SDS011;47304;47.456;19.160;2023-11-18T03:27:36;7.90;;;3.90;;
61435;SDS011;47304;47.456;19.160;2023-11-18T03:30:05;8.50;;;3.70;;
61435;SDS011;47304;47.456;19.160;2023-11-18T03:32:35;9.00;;;4.30;;
61435;SDS011;47304;47.456;19.160;2023-11-18T03:35:05;9.20;;;4.00;;
61435;SDS011;47304;47.456;19.160;2023-11-18T03:37:34;8.70;;;4.20;;
61435;SDS011;47304;47.456;19.160;2023-11-18T03:40:04;7.70;;;4.00;;
61435;SDS011;47304;47.456;19.160;2023-11-18T03:42:34;7.90;;;4.10;;
61435;SDS011;47304;47.456;19.160;2023-11-18T03:45:03;8.10;;;4.10;;
61435;SDS011;47304;47.456;19.160;2023-11-18T03:47:32;8.90;;;4.60;;
61435;SDS011;47304;47.456;19.160;2023-11-18T03:50:01;9.00;;;4.70;;
61435;SDS011;47304;47.456;19.160;2023-11-18T03:52:30;8.70;;;4.40;;
61435;SDS011;47304;47.456;19.160;2023-11-18T03:54:58;9.40;;;4.70;;
61435;SDS011;47304;47.456;19.160;2023-11-18T03:57:29;9.20;;;4.80;;
61435;SDS011;47304;47.456;19.160;2023-11-18T03:59:57;8.40;;;4.30;;
61435;SDS011;47304;47.456;19.160;2023-11-18T04:02:26;9.20;;;4.40;;
61435;SDS011;47304;47.456;19.160;2023-11-18T04:04:55;8.10;;;4.10;;
61435;SDS011;47304;47.456;19.160;2023-11-18T04:07:23;8.90;;;4.70;;
61435;SDS011;47304;47.456;19.160;2023-11-18T04:09:51;10.10;;;5.20;;
61435;SDS011;47304;47.456;19.160;2023-11-18T04:12:20;9.00;;;4.80;;
61435;SDS011;47304;47.456;19.160;2023-11-18T04:14:48;9.20;;;4.70;;
61435;SDS011;47304;47.456;19.160;2023-11-18T04:17:17;9.90;;;5.10;;
61435;SDS011;47304;47.456;19.160;2023-11-18T04:19:45;9.70;;;4.80;;
61435;SDS011;47304;47.456;19.160;2023-11-18T04:22:13;9.20;;;4.80;;
61435;SDS011;47304;47.456;19.160;2023-11-18T04:24:42;9.20;;;4.40;;
61435;SDS011;47304;47.456;19.160;2023-11-18T04:27:10;8.20;;;4.80;;
61435;SDS011;47304;47.456;19.160;2023-11-18T04:29:39;14.40;;;4.70;;
61435;SDS011;47304;47.456;19.160;2023-11-18T04:32:08;7.90;;;3.90;;
61435;SDS011;47304;47.456;19.160;2023-11-18T04:34:36;10.90;;;4.90;;
61435;SDS011;47304;47.456;19.160;2023-11-18T04:37:05;9.30;;;4.60;;
61435;SDS011;47304;47.456;19.160;2023-11-18T04:39:33;9.40;;;5.00;;
61435;SDS011;47304;47.456;19.160;2023-11-18T04:42:02;8.80;;;4.50;;
61435;SDS011;47304;47.456;19.160;2023-11-18T04:44:31;9.60;;;4.80;;
61435;SDS011;47304;47.456;19.160;2023-11-18T04:46:59;8.50;;;4.70;;
61435;SDS011;47304;47.456;19.160;2023-11-18T04:49:28;8.90;;;4.40;;
61435;SDS011;47304;47.456;19.160;2023-11-18T04:51:57;9.40;;;4.20;;
61435;SDS011;47304;47.456;19.160;2023-11-18T04:54:25;9.40;;;4.10;;
61435;SDS011;47304;47.456;19.160;2023-11-18T04:56:54;8.20;;;4.10;;
61435;SDS011;47304;47.456;19.160;2023-11-18T04:59:22;8.30;;;4.40;;
61435;SDS011;47304;47.456;19.160;2023-11-18T05:01:51;9.00;;;4.90;;
61435;SDS011;47304;47.456;19.160;2023-11-18T05:04:19;8.40;;;4.50;;
61435;SDS011;47304;47.456;19.160;2023-11-18T05:06:48;8.00;;;4.20;;
61435;SDS011;47304;47.456;19.160;2023-11-18T05:09:16;8.00;;;4.20;;
61435;SDS011;47304;47.456;19.160;2023-11-18T05:11:45;9.00;;;4.20;;
61435;SDS011;47304;47.456;19.160;2023-11-18T05:14:13;10.20;;;4.30;;
61435;SDS011;47304;47.456;19.160;2023-11-18T05:16:42;8.10;;;4.40;;
61435;SDS011;47304;47.456;19.160;2023-11-18T05:19:10;7.10;;;3.70;;
61435;SDS011;47304;47.456;19.160;2023-11-18T05:21:39;8.20;;;4.40;;
61435;SDS011;47304;47.456;19.160;2023-11-18T05:24:08;8.00;;;4.30;;
61435;SDS011;47304;47.456;19.160;2023-11-18T05:26:36;8.20;;;4.10;;
61435;SDS011;47304;47.456;19.160;2023-11-18T05:29:05;7.50;;;4.10;;
61435;SDS011;47304;47.456;19.160;2023-11-18T05:31:33;7.70;;;3.80;;
61435;SDS011;47304;47.456;19.160;2023-11-18T05:34:01;7.70;;;3.80;;
61435;SDS011;47304;47.456;19.160;2023-11-18T05:36:30;8.30;;;4.30;;
61435;SDS011;47304;47.456;19.160;2023-11-18T05:38:58;7.90;;;3.80;;
61435;SDS011;47304;47.456;19.160;2023-11-18T05:41:26;7.40;;;3.70;;
61435;SDS011;47304;47.456;19.160;2023-11-18T05:43:55;7.70;;;3.80;;
61435;SDS011;47304;47.456;19.160;2023-11-18T05:46:24;7.80;;;3.90;;
61435;SDS011;47304;47.456;19.160;2023-11-18T05:48:52;8.50;;;4.20;;
61435;SDS011;47304;47.456;19.160;2023-11-18T05:51:21;8.40;;;3.70;;
61435;SDS011;47304;47.456;19.160;2023-11-18T05:53:50;7.00;;;3.70;;
61435;SDS011;47304;47.456;19.160;2023-11-18T05:56:19;7.80;;;3.90;;
61435;SDS011;47304;47.456;19.160;2023-11-18T05:58:48;7.80;;;3.70;;
61435;SDS011;47304;47.456;19.160;2023-11-18T06:01:17;7.70;;;3.70;;
61435;SDS011;47304;47.456;19.160;2023-11-18T06:03:45;7.60;;;3.70;;
61435;SDS011;47304;47.456;19.160;2023-11-18T06:06:14;7.50;;;3.70;;
61435;SDS011;47304;47.456;19.160;2023-11-18T06:08:43;7.70;;;3.70;;
61435;SDS011;47304;47.456;19.160;2023-11-18T06:11:11;9.20;;;4.00;;
61435;SDS011;47304;47.456;19.160;2023-11-18T06:13:41;7.90;;;4.10;;
61435;SDS011;47304;47.456;19.160;2023-11-18T06:16:11;7.90;;;4.10;;
61435;SDS011;47304;47.456;19.160;2023-11-18T06:18:41;8.00;;;3.90;;
61435;SDS011;47304;47.456;19.160;2023-11-18T06:21:13;9.70;;;4.40;;
61435;SDS011;47304;47.456;19.160;2023-11-18T06:23:43;8.30;;;4.00;;
61435;SDS011;47304;47.456;19.160;2023-11-18T06:26:12;7.50;;;3.60;;
61435;SDS011;47304;47.456;19.160;2023-11-18T06:28:41;7.80;;;3.80;;
61435;SDS011;47304;47.456;19.160;2023-11-18T06:31:11;8.70;;;3.90;;
61435;SDS011;47304;47.456;19.160;2023-11-18T06:33:40;8.00;;;3.90;;
61435;SDS011;47304;47.456;19.160;2023-11-18T06:36:09;7.60;;;3.70;;
61435;SDS011;47304;47.456;19.160;2023-11-18T06:38:43;7.70;;;3.60;;
61435;SDS011;47304;47.456;19.160;2023-11-18T06:41:12;7.80;;;3.60;;
61435;SDS011;47304;47.456;19.160;2023-11-18T06:43:41;7.90;;;3.60;;
61435;SDS011;47304;47.456;19.160;2023-11-18T06:46:10;8.60;;;4.20;;
61435;SDS011;47304;47.456;19.160;2023-11-18T06:48:39;8.60;;;3.90;;
61435;SDS011;47304;47.456;19.160;2023-11-18T06:51:07;8.10;;;4.00;;
61435;SDS011;47304;47.456;19.160;2023-11-18T06:53:35;7.40;;;3.60;;
61435;SDS011;47304;47.456;19.160;2023-11-18T06:56:04;7.90;;;3.90;;
61435;SDS011;47304;47.456;19.160;2023-11-18T06:58:34;7.60;;;3.70;;
61435;SDS011;47304;47.456;19.160;2023-11-18T07:01:05;8.00;;;3.70;;
61435;SDS011;47304;47.456;19.160;2023-11-18T07:03:33;8.20;;;4.20;;
61435;SDS011;47304;47.456;19.160;2023-11-18T07:06:02;9.70;;;3.50;;
61435;SDS011;47304;47.456;19.160;2023-11-18T07:08:31;6.80;;;3.50;;
61435;SDS011;47304;47.456;19.160;2023-11-18T07:10:59;6.70;;;3.50;;
61435;SDS011;47304;47.456;19.160;2023-11-18T07:13:28;7.00;;;3.50;;
61435;SDS011;47304;47.456;19.160;2023-11-18T07:15:56;6.60;;;2.90;;
61435;SDS011;47304;47.456;19.160;2023-11-18T07:18:24;7.70;;;3.80;;
61435;SDS011;47304;47.456;19.160;2023-11-18T07:20:53;7.60;;;3.40;;
61435;SDS011;47304;47.456;19.160;2023-11-18T07:23:21;8.00;;;3.30;;
61435;SDS011;47304;47.456;19.160;2023-11-18T07:25:50;6.70;;;3.10;;
61435;SDS011;47304;47.456;19.160;2023-11-18T07:28:19;6.30;;;2.80;;
61435;SDS011;47304;47.456;19.160;2023-11-18T07:30:48;7.50;;;3.40;;
61435;SDS011;47304;47.456;19.160;2023-11-18T07:33:16;9.00;;;3.90;;
61435;SDS011;47304;47.456;19.160;2023-11-18T07:35:45;10.20;;;3.60;;
61435;SDS011;47304;47.456;19.160;2023-11-18T07:38:14;7.70;;;3.50;;
61435;SDS011;47304;47.456;19.160;2023-11-18T07:40:43;8.30;;;4.10;;
61435;SDS011;47304;47.456;19.160;2023-11-18T07:43:12;8.40;;;3.70;;
61435;SDS011;47304;47.456;19.160;2023-11-18T07:45:41;7.90;;;3.40;;
61435;SDS011;47304;47.456;19.160;2023-11-18T07:48:09;7.70;;;3.20;;
61435;SDS011;47304;47.456;19.160;2023-11-18T07:50:38;6.30;;;2.90;;
61435;SDS011;47304;47.456;19.160;2023-11-18T07:53:07;5.50;;;2.60;;
61435;SDS011;47304;47.456;19.160;2023-11-18T07:55:35;8.00;;;3.20;;
61435;SDS011;47304;47.456;19.160;2023-11-18T07:58:04;6.60;;;2.90;;
61435;SDS011;47304;47.456;19.160;2023-11-18T08:00:32;7.30;;;3.10;;
61435;SDS011;47304;47.456;19.160;2023-11-18T08:03:01;7.60;;;2.80;;
61435;SDS011;47304;47.456;19.160;2023-11-18T08:05:29;7.10;;;2.50;;
61435;SDS011;47304;47.456;19.160;2023-11-18T08:07:57;5.60;;;2.70;;
61435;SDS011;47304;47.456;19.160;2023-11-18T08:10:26;6.40;;;2.90;;
61435;SDS011;47304;47.456;19.160;2023-11-18T08:12:54;5.70;;;2.70;;
61435;SDS011;47304;47.456;19.160;2023-11-18T08:15:22;5.80;;;2.60;;
61435;SDS011;47304;47.456;19.160;2023-11-18T08:17:51;5.70;;;2.60;;
61435;SDS011;47304;47.456;19.160;2023-11-18T08:20:19;8.10;;;2.70;;
61435;SDS011;47304;47.456;19.160;2023-11-18T08:22:47;6.90;;;2.50;;
61435;SDS011;47304;47.456;19.160;2023-11-18T08:25:16;5.20;;;2.20;;
61435;SDS011;47304;47.456;19.160;2023-11-18T08:27:44;5.20;;;2.20;;
61435;SDS011;47304;47.456;19.160;2023-11-18T08:30:14;6.60;;;2.80;;
61435;SDS011;47304;47.456;19.160;2023-11-18T08:32:42;6.10;;;2.90;;
61435;SDS011;47304;47.456;19.160;2023-11-18T08:35:11;7.10;;;3.30;;
61435;SDS011;47304;47.456;19.160;2023-11-18T08:37:40;6.80;;;2.50;;
61435;SDS011;47304;47.456;19.160;2023-11-18T08:40:09;6.00;;;2.80;;
61435;SDS011;47304;47.456;19.160;2023-11-18T08:42:39;5.10;;;2.40;;
61435;SDS011;47304;47.456;19.160;2023-11-18T08:45:08;5.00;;;2.40;;
61435;SDS011;47304;47.456;19.160;2023-11-18T08:47:37;5.40;;;2.50;;
61435;SDS011;47304;47.456;19.160;2023-11-18T08:50:06;6.00;;;2.60;;
61435;SDS011;47304;47.456;19.160;2023-11-18T08:52:35;5.60;;;2.50;;
61435;SDS011;47304;47.456;19.160;2023-11-18T08:55:04;5.30;;;2.60;;
61435;SDS011;47304;47.456;19.160;2023-11-18T08:57:33;4.70;;;2.30;;
61435;SDS011;47304;47.456;19.160;2023-11-18T09:00:03;5.50;;;2.60;;
61435;SDS011;47304;47.456;19.160;2023-11-18T09:02:32;5.50;;;2.30;;
61435;SDS011;47304;47.456;19.160;2023-11-18T09:05:01;5.00;;;2.40;;
61435;SDS011;47304;47.456;19.160;2023-11-18T09:07:29;6.30;;;2.50;;
61435;SDS011;47304;47.456;19.160;2023-11-18T09:09:58;6.50;;;2.40;;
61435;SDS011;47304;47.456;19.160;2023-11-18T09:12:27;5.40;;;2.30;;
61435;SDS011;47304;47.456;19.160;2023-11-18T09:14:56;4.20;;;2.20;;
61435;SDS011;47304;47.456;19.160;2023-11-18T09:17:24;5.20;;;2.40;;
61435;SDS011;47304;47.456;19.160;2023-11-18T09:19:53;5.20;;;2.40;;
61435;SDS011;47304;47.456;19.160;2023-11-18T09:22:21;5.20;;;2.40;;
61435;SDS011;47304;47.456;19.160;2023-11-18T09:24:51;6.50;;;2.10;;
61435;SDS011;47304;47.456;19.160;2023-11-18T09:27:19;4.80;;;2.20;;
61435;SDS011;47304;47.456;19.160;2023-11-18T09:29:47;4.60;;;2.00;;
61435;SDS011;47304;47.456;19.160;2023-11-18T09:32:16;4.60;;;2.10;;
61435;SDS011;47304;47.456;19.160;2023-11-18T09:34:45;4.30;;;2.00;;
61435;SDS011;47304;47.456;19.160;2023-11-18T09:37:13;5.30;;;2.20;;
61435;SDS011;47304;47.456;19.160;2023-11-18T09:39:42;4.10;;;2.10;;
61435;SDS011;47304;47.456;19.160;2023-11-18T09:42:10;4.30;;;2.00;;
61435;SDS011;47304;47.456;19.160;2023-11-18T09:44:40;4.50;;;2.20;;
61435;SDS011;47304;47.456;19.160;2023-11-18T09:47:09;3.90;;;2.00;;
61435;SDS011;47304;47.456;19.160;2023-11-18T09:49:42;6.00;;;2.50;;
61435;SDS011;47304;47.456;19.160;2023-11-18T09:52:16;5.50;;;2.30;;
61435;SDS011;47304;47.456;19.160;2023-11-18T09:54:48;5.60;;;2.30;;
61435;SDS011;47304;47.456;19.160;2023-11-18T09:57:26;6.10;;;2.70;;
61435;SDS011;47304;47.456;19.160;2023-11-18T10:00:00;4.50;;;2.00;;
61435;SDS011;47304;47.456;19.160;2023-11-18T10:04:57;6.30;;;2.40;;
61435;SDS011;47304;47.456;19.160;2023-11-18T10:07:28;3.80;;;1.90;;
61435;SDS011;47304;47.456;19.160;2023-11-18T10:09:57;4.00;;;1.90;;
61435;SDS011;47304;47.456;19.160;2023-11-18T10:12:26;5.40;;;2.30;;
61435;SDS011;47304;47.456;19.160;2023-11-18T10:14:54;4.00;;;2.00;;
61435;SDS011;47304;47.456;19.160;2023-11-18T10:17:23;5.40;;;2.40;;
61435;SDS011;47304;47.456;19.160;2023-11-18T10:19:52;4.90;;;2.20;;
61435;SDS011;47304;47.456;19.160;2023-11-18T10:22:22;4.10;;;2.00;;
61435;SDS011;47304;47.456;19.160;2023-11-18T10:24:51;5.20;;;2.30;;
61435;SDS011;47304;47.456;19.160;2023-11-18T10:27:20;4.90;;;2.10;;
61435;SDS011;47304;47.456;19.160;2023-11-18T10:29:49;4.30;;;2.10;;
61435;SDS011;47304;47.456;19.160;2023-11-18T10:32:21;4.30;;;2.10;;
61435;SDS011;47304;47.456;19.160;2023-11-18T10:34:49;4.30;;;2.00;;
61435;SDS011;47304;47.456;19.160;2023-11-18T10:37:20;4.70;;;2.10;;
61435;SDS011;47304;47.456;19.160;2023-11-18T10:39:49;3.90;;;2.00;;
61435;SDS011;47304;47.456;19.160;2023-11-18T10:42:17;4.90;;;2.10;;
61435;SDS011;47304;47.456;19.160;2023-11-18T10:44:55;4.50;;;1.90;;
61435;SDS011;47304;47.456;19.160;2023-11-18T10:47:25;4.10;;;1.80;;
61435;SDS011;47304;47.456;19.160;2023-11-18T10:49:54;4.00;;;1.90;;
61435;SDS011;47304;47.456;19.160;2023-11-18T10:52:23;4.30;;;2.00;;
61435;SDS011;47304;47.456;19.160;2023-11-18T10:54:52;4.50;;;2.10;;
61435;SDS011;47304;47.456;19.160;2023-11-18T10:57:21;5.20;;;2.10;;
61435;SDS011;47304;47.456;19.160;2023-11-18T11:02:19;3.80;;;1.90;;
61435;SDS011;47304;47.456;19.160;2023-11-18T11:04:47;6.00;;;1.90;;
61435;SDS011;47304;47.456;19.160;2023-11-18T11:07:16;7.00;;;2.20;;
61435;SDS011;47304;47.456;19.160;2023-11-18T11:09:45;3.60;;;2.00;;
61435;SDS011;47304;47.456;19.160;2023-11-18T11:12:14;3.20;;;1.70;;
61435;SDS011;47304;47.456;19.160;2023-11-18T11:14:46;3.60;;;1.80;;
61435;SDS011;47304;47.456;19.160;2023-11-18T11:17:23;4.50;;;1.90;;
61435;SDS011;47304;47.456;19.160;2023-11-18T11:19:55;3.80;;;1.90;;
61435;SDS011;47304;47.456;19.160;2023-11-18T11:22:28;3.50;;;1.80;;
61435;SDS011;47304;47.456;19.160;2023-11-18T11:25:08;3.60;;;1.60;;
61435;SDS011;47304;47.456;19.160;2023-11-18T11:27:46;2.30;;;1.50;;
61435;SDS011;47304;47.456;19.160;2023-11-18T11:30:22;3.60;;;1.70;;
61435;SDS011;47304;47.456;19.160;2023-11-18T11:32:56;3.60;;;1.50;;
61435;SDS011;47304;47.456;19.160;2023-11-18T11:35:33;3.90;;;1.90;;
61435;SDS011;47304;47.456;19.160;2023-11-18T11:38:03;3.40;;;1.60;;
61435;SDS011;47304;47.456;19.160;2023-11-18T11:40:32;4.60;;;1.60;;
61435;SDS011;47304;47.456;19.160;2023-11-18T11:43:02;3.70;;;1.60;;
61435;SDS011;47304;47.456;19.160;2023-11-18T11:45:32;5.00;;;1.80;;
61435;SDS011;47304;47.456;19.160;2023-11-18T11:48:01;3.70;;;1.70;;
61435;SDS011;47304;47.456;19.160;2023-11-18T11:50:32;4.00;;;1.60;;
61435;SDS011;47304;47.456;19.160;2023-11-18T11:53:04;3.60;;;1.60;;
61435;SDS011;47304;47.456;19.160;2023-11-18T11:55:38;3.60;;;1.60;;
61435;SDS011;47304;47.456;19.160;2023-11-18T11:58:26;2.70;;;1.40;;
61435;SDS011;47304;47.456;19.160;2023-11-18T12:00:55;3.20;;;1.50;;
61435;SDS011;47304;47.456;19.160;2023-11-18T12:03:24;4.60;;;1.80;;
61435;SDS011;47304;47.456;19.160;2023-11-18T12:05:55;6.10;;;1.50;;
61435;SDS011;47304;47.456;19.160;2023-11-18T12:08:24;3.20;;;1.50;;
61435;SDS011;47304;47.456;19.160;2023-11-18T12:10:53;5.20;;;2.20;;
61435;SDS011;47304;47.456;19.160;2023-11-18T12:13:22;3.50;;;1.60;;
61435;SDS011;47304;47.456;19.160;2023-11-18T12:15:51;5.10;;;1.70;;
61435;SDS011;47304;47.456;19.160;2023-11-18T12:18:21;3.90;;;1.60;;
61435;SDS011;47304;47.456;19.160;2023-11-18T12:20:49;3.10;;;1.50;;
61435;SDS011;47304;47.456;19.160;2023-11-18T12:23:18;2.70;;;1.60;;
61435;SDS011;47304;47.456;19.160;2023-11-18T12:25:47;2.30;;;1.50;;
61435;SDS011;47304;47.456;19.160;2023-11-18T12:28:16;2.70;;;1.50;;
61435;SDS011;47304;47.456;19.160;2023-11-18T12:30:45;4.40;;;1.60;;
61435;SDS011;47304;47.456;19.160;2023-11-18T12:33:14;3.00;;;1.50;;
61435;SDS011;47304;47.456;19.160;2023-11-18T12:35:52;3.20;;;1.50;;
61435;SDS011;47304;47.456;19.160;2023-11-18T12:42:01;3.30;;;1.60;;
61435;SDS011;47304;47.456;19.160;2023-11-18T12:44:30;3.90;;;1.60;;
61435;SDS011;47304;47.456;19.160;2023-11-18T12:47:02;3.20;;;1.60;;
61435;SDS011;47304;47.456;19.160;2023-11-18T12:49:31;4.10;;;1.40;;
61435;SDS011;47304;47.456;19.160;2023-11-18T12:52:05;2.70;;;1.50;;
61435;SDS011;47304;47.456;19.160;2023-11-18T12:54:34;3.30;;;1.60;;
61435;SDS011;47304;47.456;19.160;2023-11-18T12:57:04;4.60;;;2.10;;
61435;SDS011;47304;47.456;19.160;2023-11-18T12:59:32;3.20;;;1.70;;
61435;SDS011;47304;47.456;19.160;2023-11-18T13:02:01;3.00;;;1.50;;
61435;SDS011;47304;47.456;19.160;2023-11-18T13:06:59;3.30;;;1.60;;
61435;SDS011;47304;47.456;19.160;2023-11-18T13:09:28;3.50;;;1.70;;
61435;SDS011;47304;47.456;19.160;2023-11-18T13:11:58;3.80;;;1.70;;
61435;SDS011;47304;47.456;19.160;2023-11-18T13:14:28;3.40;;;1.60;;
61435;SDS011;47304;47.456;19.160;2023-11-18T13:16:58;3.70;;;1.80;;
61435;SDS011;47304;47.456;19.160;2023-11-18T13:19:28;3.50;;;1.70;;
61435;SDS011;47304;47.456;19.160;2023-11-18T13:22:00;4.50;;;1.70;;
61435;SDS011;47304;47.456;19.160;2023-11-18T13:24:29;3.40;;;1.70;;
61435;SDS011;47304;47.456;19.160;2023-11-18T13:26:58;3.90;;;1.70;;
61435;SDS011;47304;47.456;19.160;2023-11-18T13:29:28;2.60;;;1.50;;
61435;SDS011;47304;47.456;19.160;2023-11-18T13:31:56;3.40;;;1.60;;
61435;SDS011;47304;47.456;19.160;2023-11-18T13:34:25;4.60;;;2.10;;
61435;SDS011;47304;47.456;19.160;2023-11-18T13:36:54;3.20;;;1.60;;
61435;SDS011;47304;47.456;19.160;2023-11-18T13:39:23;3.60;;;1.70;;
61435;SDS011;47304;47.456;19.160;2023-11-18T13:41:51;4.40;;;1.70;;
61435;SDS011;47304;47.456;19.160;2023-11-18T13:44:32;3.90;;;1.60;;
61435;SDS011;47304;47.456;19.160;2023-11-18T13:47:01;2.70;;;1.50;;
61435;SDS011;47304;47.456;19.160;2023-11-18T13:49:30;4.10;;;1.70;;
61435;SDS011;47304;47.456;19.160;2023-11-18T13:51:59;3.60;;;1.50;;
61435;SDS011;47304;47.456;19.160;2023-11-18T13:54:28;4.60;;;1.70;;
61435;SDS011;47304;47.456;19.160;2023-11-18T13:56:56;4.80;;;1.90;;
61435;SDS011;47304;47.456;19.160;2023-11-18T13:59:26;4.90;;;1.90;;
61435;SDS011;47304;47.456;19.160;2023-11-18T14:01:55;3.00;;;1.40;;
61435;SDS011;47304;47.456;19.160;2023-11-18T14:04:26;3.10;;;1.50;;
61435;SDS011;47304;47.456;19.160;2023-11-18T14:06:58;4.00;;;1.80;;
61435;SDS011;47304;47.456;19.160;2023-11-18T14:09:27;6.30;;;1.90;;
61435;SDS011;47304;47.456;19.160;2023-11-18T14:11:55;5.00;;;2.10;;
61435;SDS011;47304;47.456;19.160;2023-11-18T14:14:24;4.20;;;1.90;;
61435;SDS011;47304;47.456;19.160;2023-11-18T14:16:52;4.70;;;1.90;;
61435;SDS011;47304;47.456;19.160;2023-11-18T14:19:20;4.90;;;1.90;;
61435;SDS011;47304;47.456;19.160;2023-11-18T14:21:49;5.40;;;2.00;;
61435;SDS011;47304;47.456;19.160;2023-11-18T14:24:18;4.10;;;1.60;;
61435;SDS011;47304;47.456;19.160;2023-11-18T14:26:46;3.00;;;1.60;;
61435;SDS011;47304;47.456;19.160;2023-11-18T14:29:15;4.60;;;1.90;;
61435;SDS011;47304;47.456;19.160;2023-11-18T14:31:44;4.40;;;1.70;;
61435;SDS011;47304;47.456;19.160;2023-11-18T14:34:12;4.30;;;1.80;;
61435;SDS011;47304;47.456;19.160;2023-11-18T14:36:41;3.40;;;1.60;;
61435;SDS011;47304;47.456;19.160;2023-11-18T14:39:10;5.50;;;2.10;;
61435;SDS011;47304;47.456;19.160;2023-11-18T14:41:38;3.80;;;1.80;;
61435;SDS011;47304;47.456;19.160;2023-11-18T14:44:07;3.40;;;1.70;;
61435;SDS011;47304;47.456;19.160;2023-11-18T14:46:35;4.40;;;2.00;;
61435;SDS011;47304;47.456;19.160;2023-11-18T14:49:04;3.90;;;1.80;;
61435;SDS011;47304;47.456;19.160;2023-11-18T14:51:32;4.70;;;2.00;;
61435;SDS011;47304;47.456;19.160;2023-11-18T14:54:00;6.50;;;2.30;;
61435;SDS011;47304;47.456;19.160;2023-11-18T14:56:29;4.50;;;1.80;;